Aviation Digital Data Service (ADDS)

Output produced by METARs form (1812 UTC 14 August 2018)
found at http://www.aviationweather.gov/adds/metars/
 
KUAO 141722Z 1418/1518 VRB03KT 5SM FU SCT040 BKN080 
     FM142100 01005KT 6SM FU SCT045 BKN080 
     FM150500 VRB03KT 5SM FU BKN040 BKN080
       
KUES 141741Z 1418/1518 24006KT P6SM SCT040 BKN250 
     FM150400 VRB03KT P6SM SCT250 
     FM151500 16005KT P6SM VCSH BKN045
       
KUIN 141740Z 1418/1518 16008KT P6SM VCSH SCT040 BKN080 
     TEMPO 1419/1421 6SM -SHRA BKN030 
     FM150000 15006KT P6SM BKN040 
     FM151200 16006KT 5SM -SHRA VCTS BKN015CB
       
KUKI 141747Z 1418/1518 12006KT 6SM FU BKN020 
     FM150100 05005KT P6SM SCT020 
     FM150500 16003KT P6SM SCT020
       
KUNV 141742Z 1418/1518 27006KT 6SM -SHRA SCT025 OVC040 
     FM150500 25005KT 4SM BR SCT250 
     FM151400 25006KT P6SM SCT250
       
KUTS 141723Z 1418/1518 17010G16KT P6SM FEW040 
     FM150100 18006KT P6SM SCT250 
     FM151000 17007KT P6SM SCT015 
     TEMPO 1514/1516 BKN025 
     FM151600 17007KT P6SM BKN035